Moapa Valley, Nevada Weather observations

Data are for 10 minute period ending at time listed.
 Day   Time   Solar   Ave.   Ave.  Ave.  Vector  Max.   Baro.   Total    
  of    of     Rad.   Air    Rel.  Wind   Wind   Wind  Press.  Precip.   
Year   Day            Temp.  Hum.  Speed  Dir.   Gust                    
2016   (PST)  Kw/m2    F      %     mph   deg.    mph    mb.     in.     
-------------------------------------------------------------------------
 180    9:20   0.89  101.9    17    5.4    62     8.1   966.7    0.00 
 180    9:30   0.79  101.8    18    5.8    82     9.6   966.7    0.00 
 180    9:40   0.96  102.0    19    5.2    88    10.3   966.8    0.00 
 180    9:50   1.08  101.2    20    9.1    96    14.6   966.9    0.00 
 180   10:00   1.13  102.3    19    6.8    88    12.8   966.7    0.00 
 180   10:10   1.12  102.6    20    5.2    97    10.3   966.6    0.00 
 180   10:20   1.15  102.8    19    6.2    89    12.1   966.5    0.00 
 180   10:30   1.17  102.6    19    8.7    97    16.0   966.4    0.00 
 180   10:40   1.22  103.8    17    8.8    88    14.6   966.4    0.00 
 180   10:50   1.18  102.7    19    9.0   102    14.2   966.3    0.00 
 180   11:00   1.16  103.0    17   10.9   106    18.1   966.2    0.00 
 180   11:10   1.19  103.3    17   11.8    97    19.2   966.1    0.00 
 180   11:20   1.20  103.5    18    9.3    89    14.9   966.1    0.00 
 180   11:30   1.19  103.9    17    9.7    94    14.9   965.9    0.00 
 180   11:40   1.15  103.2    17   11.1   103    15.6   965.8    0.00 
 180   11:50   1.18  103.2    19    7.9   125    12.1   965.6    0.00 
 180   12:00   1.20  102.7    20    6.2   113    12.4   965.4    0.00 
 180   12:10   1.15  103.7    18    5.0   148    10.3   965.2    0.00 
 180   12:20   1.24  104.0    22    4.7   154     8.1   965.0    0.00 
 180   12:30   1.24  103.7    20    6.0   123    11.3   964.9    0.00 
 180   12:40   1.24  104.8    18    7.3    86    18.5   964.8    0.00 
 180   12:50   1.22  105.7    18    5.5    90     9.9   964.6    0.00 
 180   13:00   1.15  105.2    17    6.4    85    12.1   964.4    0.00 
 180   13:10   1.02  105.6    17    6.5    75    12.8   964.3    0.00 
 180   13:20   1.22  104.6    18    5.6    95    12.4   964.2    0.00 
 180   13:30   1.22  104.3    20    6.9   118    12.8   964.1    0.00 
 180   13:40   0.98  105.8    18    3.4    74     6.7   964.0    0.00 
 180   13:50   1.23  104.5    21    6.8   114    11.7   964.0    0.00 
 180   14:00   0.69  103.0    18    9.3   110    14.9   963.9    0.00 
 180   14:10   0.43  101.2    20    8.8   118    13.8   963.9    0.00 
 180   14:20   0.33   99.2    22   12.6   115    22.8   964.0    0.00 
 180   14:30   0.27   99.0    20   14.2   104    24.9   964.0    0.00 
 180   14:40   0.23   99.4    17   15.4    93    24.2   963.8    0.00 
 180   14:50   0.21   99.5    17   12.9    96    19.6   963.7    0.00 
 180   15:00   0.23   99.4    17   12.5    85    21.0   963.6    0.00 
 180   15:10   0.25   99.0    19    9.8    87    15.3   963.5    0.00 
 180   15:20   0.26   98.0    20    6.1   107    11.3   963.4    0.00 
 180   15:30   0.28   97.8    21    6.2   122    11.7   963.4    0.00 
 180   15:40   0.33   97.3    23    4.9   138     8.1   963.4    0.00 
 180   15:50   0.43   97.0    24    6.4   143    11.7   963.3    0.00 
 180   16:00   0.49   97.1    23    7.1   143    12.4   963.3    0.00 
 180   16:10   0.54   97.5    24    7.8   134    13.8   963.3    0.00 
 180   16:20   0.41   97.3    23    7.2   138    14.2   963.2    0.00 
 180   16:30   0.35   99.0    19   10.0   107    17.8   963.0    0.00 
 180   16:40   0.24   99.8    18   10.5   108    15.6   962.9    0.00 
 180   16:50   0.18  100.3    17   11.3   105    17.1   962.8    0.00 
 180   17:00   0.31   99.7    19    8.3   110    13.8   962.7    0.00 
 180   17:10   0.36  100.3    18    9.2   106    16.0   962.7    0.00 
 180   17:20   0.33  100.2    18    7.1   108    12.1   962.7    0.00 
 180   17:30   0.21   99.6    19    6.2   100     8.5   962.7    0.00 
 180   17:40   0.22   98.8    20    5.7   120     9.2   962.7    0.00 
 180   17:50   0.17   98.6    21    5.1   129     7.8   962.8    0.00 
 180   18:00   0.12   97.7    22    4.3   141     6.3   962.7    0.00 
 180   18:10   0.03   97.4    21    3.3   165     6.0   962.9    0.00 
 180   18:20   0.03   97.2    20    3.1   179     3.8   963.1    0.00 
 180   18:30   0.02   97.1    20    3.1   203     3.5   963.2    0.00 
 180   18:40   0.01   96.9    20    3.4   199     5.3   963.3    0.00 
 180   18:50   0.01   96.2    21    3.3   190     4.9   963.5    0.00 
 180   19:00   0.01   96.1    20    2.9   203     3.8   963.6    0.00 
 180   19:10   0.00   97.1    19    3.9   222     9.9   963.7    0.00 
 180   19:20   0.00   97.7    19    4.9   233    10.3   963.6    0.00 
 180   19:30   0.00   98.3    19    5.9   228    10.3   963.6    0.00 
 180   19:40   0.00   98.1    19    6.0   231    11.3   963.6    0.00 
 180   19:50   0.00   97.6    20    4.9   243     8.5   963.5    0.00 
 180   20:00   0.00   97.2    20    3.2   243     6.3   963.6    0.00 
 180   20:10   0.00   96.5    22    1.7   345     3.5   963.6    0.00 
 180   20:20   0.00   95.1    22    3.5    63     5.3   963.6    0.00 
 180   20:30   0.00   94.7    23    2.9    50     3.8   963.5    0.00 
 180   20:40   0.00   93.5    24    2.2    60     3.8   963.5    0.00 
 180   20:50   0.00   90.6    27    2.7   254     4.2   963.7    0.00 
 180   21:00   0.00   88.3    30    0.3   350     1.3   963.8    0.00 
 180   21:10   0.00   87.3    30    2.0    14     3.8   963.9    0.00 
 180   21:20   0.00   88.4    29    2.3    44     3.5   963.9    0.00 
 180   21:30   0.00   89.7    27    2.6   256     5.3   964.0    0.00 
 180   21:40   0.00   87.2    30    3.0   261     4.9   964.0    0.00 
 180   21:50   0.00   86.5    30    2.9   286     4.6   964.0    0.00 
 180   22:00   0.00   86.1    31    1.8     9     2.8   964.0    0.00 
 180   22:10   0.00   85.0    32    2.8   292     3.8   964.0    0.00 
 180   22:20   0.00   85.3    32    3.4   328     4.6   964.0    0.00 
 180   22:30   0.00   85.3    32    3.0   280     3.8   963.9    0.00 
 180   22:40   0.00   86.5    30    3.5   260     6.0   964.0    0.00 
 180   22:50   0.00   87.2    29    2.4   266     3.5   963.9    0.00 
 180   23:00   0.00   87.1    29    3.1   257     4.9   963.9    0.00 
 180   23:10   0.00   87.3    29    2.5   302     4.9   963.8    0.00 
 180   23:20   0.00   84.6    34    2.8    25     4.6   963.8    0.00 
 180   23:30   0.00   81.1    42    1.2   330     2.4   963.8    0.00 
 180   23:40   0.00   81.8    36    1.8   236     2.8   963.8    0.00 
 180   23:50   0.00   81.6    37    1.0   271     2.4   963.7    0.00 
 181    0:00   0.00   79.9    38    0.0     0     0.0   963.7    0.00 
 181    0:10   0.00   78.9    49    0.6    81     2.1   963.7    0.00 
 181    0:20   0.00   78.4    46    2.2    77     3.5   963.8    0.00 
 181    0:30   0.00   81.8    36    2.1    24     2.8   963.7    0.00 
 181    0:40   0.00   82.1    33    2.0   346     2.8   963.5    0.00 
 181    0:50   0.00   79.9    39    2.7   229     3.8   963.6    0.00 
 181    1:00   0.00   78.2    44    1.8   133     3.8   963.7    0.00 
 181    1:10   0.00   77.4    47    1.4   298     3.1   963.8    0.00 
 181    1:20   0.00   75.3    53    1.2   176     2.4   963.8    0.00 
 181    1:30   0.00   76.2    48    2.1     2     3.8   963.8    0.00 
 181    1:40   0.00   75.1    51    2.1   287     3.8   963.9    0.00 
 181    1:50   0.00   76.4    45    1.6   242     3.5   964.0    0.00 
 181    2:00   0.00   76.2    46    1.9   330     3.8   963.9    0.00 
 181    2:10   0.00   74.4    50    2.0   326     3.5   963.8    0.00 
 181    2:20   0.00   74.9    48    2.4   286     4.9   963.8    0.00 
 181    2:30   0.00   77.9    41    2.9   275     5.6   963.9    0.00 
 181    2:40   0.00   77.0    45    1.1    68     4.2   963.9    0.00 
 181    2:50   0.00   76.9    43    2.7     1     3.8   963.9    0.00 
 181    3:00   0.00   76.4    42    1.1   280     3.1   964.0    0.00 
 181    3:10   0.00   76.4    43    0.6   316     2.1   964.1    0.00 
 181    3:20   0.00   77.3    42    1.2   343     2.1   964.1    0.00 
 181    3:30   0.00   75.1    50    1.4   208     2.8   964.3    0.00 
 181    3:40   0.00   74.3    48    2.0   359     5.6   964.4    0.00 
 181    3:50   0.00   75.7    43    4.0   325     5.3   964.4    0.00 
 181    4:00   0.00   77.6    39    3.9   322     6.0   964.4    0.00 
 181    4:10   0.00   77.4    41    1.8   316     3.1   964.4    0.00 
 181    4:20   0.00   76.0    44    0.7   304     2.1   964.6    0.00 
 181    4:30   0.01   76.6    41    1.4   329     2.1   964.6    0.00 
 181    4:40   0.02   77.8    36    2.1   323     2.8   964.7    0.00 
 181    4:50   0.02   77.9    38    2.6   280     3.1   964.7    0.00 
 181    5:00   0.05   78.1    37    0.8   281     2.8   964.7    0.00 
 181    5:10   0.05   78.0    43    0.8   238     2.1   964.8    0.00 
 181    5:20   0.06   76.6    43    0.5   241     1.7   964.8    0.00 
 181    5:30   0.06   78.1    40    1.8   288     2.8   964.9    0.00 
 181    5:40   0.15   79.4    44    0.9   269     1.7   965.1    0.00 
 181    5:50   0.21   81.8    37    2.3   282     3.5   965.2    0.00 
 181    6:00   0.27   84.7    32    2.7   275     3.8   965.2    0.00 
 181    6:10   0.36   86.4    32    2.3   285     3.5   965.3    0.00 
 181    6:20   0.15   85.7    33    2.2   315     3.1   965.2    0.00 
 181    6:30   0.21   85.3    34    2.4   332     3.5   965.2    0.00 
 181    6:40   0.31   85.8    34    3.2   327     4.9   965.3    0.00 
 181    6:50   0.40   85.6    34    3.8   328     6.0   965.4    0.00 
 181    7:00   0.51   87.8    32    3.3   333     4.9   965.4    0.00 
 181    7:10   0.56   90.2    29    2.9   317     4.2   965.5    0.00 
 181    7:20   0.61   92.1    24    4.0   281     6.0   965.6    0.00 
 181    7:30   0.73   92.6    26    3.6   281     5.3   965.6    0.00 
 181    7:40   0.74   93.7    23    3.9   265     5.6   965.6    0.00 
 181    7:50   0.61   93.2    25    4.1   285     5.6   965.5    0.00 
 181    8:00   0.74   92.9    29    3.2   316     4.9   965.5    0.00 
 181    8:10   0.77   93.5    30    2.6   324     4.2   965.4    0.00 
 181    8:20   0.80   96.1    29    0.9   169     2.8   965.4    0.00 
 181    8:30   0.83   95.5    27    2.4   183     3.8   965.4    0.00 
 181    8:40   0.87   96.2    25    2.4   165     3.8   965.4    0.00 
 181    8:50   0.53   95.9    28    2.0   152     3.8   965.4    0.00 
 181    9:00   0.39   95.8    21    1.2   167     2.4   965.4    0.00 
 181    9:10   0.81   96.7    30    1.7   165     2.8   965.4    0.00 

Return to Moapa Valley graphs page.


Western Regional Climate Center,wrcc@dri.edu